createdAt,value
2023-03-20T00:01:53.268Z,24.90
2023-03-20T00:04:29.200Z,25.00
2023-03-20T00:07:05.482Z,24.90
2023-03-20T00:09:40.456Z,24.90
2023-03-20T00:12:18.508Z,24.90
2023-03-20T00:14:53.789Z,24.90
2023-03-20T00:17:31.093Z,24.80
2023-03-20T00:20:07.701Z,24.60
2023-03-20T00:22:42.766Z,24.50
2023-03-20T00:25:21.146Z,24.40
2023-03-20T00:27:58.229Z,24.30
2023-03-20T00:30:40.601Z,24.50
2023-03-20T00:33:17.663Z,24.60
2023-03-20T00:35:53.229Z,24.40
2023-03-20T00:38:28.798Z,24.30
2023-03-20T00:41:04.784Z,24.20
2023-03-20T00:43:40.535Z,24.10
2023-03-20T00:46:18.589Z,24.00
2023-03-20T00:48:56.584Z,24.00
2023-03-20T00:51:32.160Z,24.00
2023-03-20T00:54:10.101Z,24.00
2023-03-20T00:56:47.637Z,23.90
2023-03-20T00:59:26.729Z,23.90
2023-03-20T01:02:02.479Z,23.80
2023-03-20T01:04:42.578Z,23.80
2023-03-20T01:07:20.185Z,23.80
2023-03-20T01:09:56.698Z,23.90
2023-03-20T01:12:31.853Z,23.80
2023-03-20T01:15:09.548Z,23.80
2023-03-20T01:17:45.353Z,23.70
2023-03-20T01:20:30.933Z,23.70
2023-03-20T01:23:06.744Z,23.80
2023-03-20T01:25:42.180Z,24.10
2023-03-20T01:28:22.731Z,24.00
2023-03-20T01:30:59.336Z,23.90
2023-03-20T01:33:34.386Z,23.90
2023-03-20T01:36:14.072Z,24.20
2023-03-20T01:38:50.356Z,24.50
2023-03-20T01:41:27.689Z,25.10
2023-03-20T01:44:18.316Z,25.90
2023-03-20T01:46:56.441Z,26.30
2023-03-20T01:50:07.848Z,26.10
2023-03-20T01:52:46.366Z,25.80
2023-03-20T01:55:22.720Z,25.60
2023-03-20T01:58:07.146Z,25.20
2023-03-20T02:00:42.894Z,24.80
2023-03-20T02:03:23.686Z,24.40
2023-03-20T02:06:19.153Z,24.40
2023-03-20T02:09:25.073Z,24.40
2023-03-20T02:12:03.256Z,24.40
2023-03-20T02:14:39.696Z,24.40
2023-03-20T02:17:29.442Z,24.30
2023-03-20T02:20:18.986Z,24.20
2023-03-20T02:23:37.706Z,24.30
2023-03-20T02:26:50.504Z,24.40
2023-03-20T02:30:21.249Z,24.40
2023-03-20T02:33:23.775Z,24.30
2023-03-20T02:36:16.649Z,24.20
2023-03-20T02:39:17.381Z,24.20
2023-03-20T02:42:01.171Z,24.10
2023-03-20T02:44:42.982Z,24.20
2023-03-20T02:47:25.957Z,24.20
2023-03-20T02:50:10.990Z,24.10
2023-03-20T02:52:54.265Z,24.20
2023-03-20T02:55:41.563Z,24.10
2023-03-20T02:58:20.786Z,24.10
2023-03-20T03:01:03.623Z,24.20
2023-03-20T03:03:45.743Z,24.20
2023-03-20T03:06:27.645Z,24.10
2023-03-20T03:09:06.438Z,23.90
2023-03-20T03:11:48.360Z,24.00
2023-03-20T03:14:31.292Z,24.30
2023-03-20T03:17:10.067Z,24.40
2023-03-20T03:20:01.987Z,24.40
2023-03-20T03:22:42.462Z,24.50
2023-03-20T03:25:20.013Z,24.50
2023-03-20T03:28:02.696Z,24.40
2023-03-20T03:30:44.248Z,24.40
2023-03-20T03:33:36.897Z,24.40
2023-03-20T03:36:17.824Z,24.30
2023-03-20T03:39:02.877Z,24.20
2023-03-20T03:41:44.474Z,24.30
2023-03-20T03:44:31.122Z,24.30
2023-03-20T03:47:12.627Z,24.30
2023-03-20T03:49:53.183Z,24.30
2023-03-20T03:52:31.144Z,24.30
2023-03-20T03:55:11.099Z,24.50
2023-03-20T03:58:13.162Z,24.40
2023-03-20T04:00:52.245Z,24.40
2023-03-20T04:03:32.903Z,24.40
2023-03-20T04:06:10.830Z,24.50
2023-03-20T04:08:46.932Z,24.40
2023-03-20T04:11:24.196Z,24.40
2023-03-20T04:13:59.669Z,24.30
2023-03-20T04:16:37.638Z,24.50
2023-03-20T04:19:13.137Z,24.50
2023-03-20T04:21:49.485Z,24.40
2023-03-20T04:24:24.958Z,24.20
2023-03-20T04:27:01.469Z,24.20
2023-03-20T04:29:39.312Z,24.10
2023-03-20T04:32:36.195Z,24.00
2023-03-20T04:35:25.081Z,24.00
2023-03-20T04:38:06.948Z,24.00
2023-03-20T04:40:43.734Z,24.10
2023-03-20T04:43:19.154Z,24.00
2023-03-20T04:45:54.834Z,24.00
2023-03-20T04:48:33.095Z,23.90
2023-03-20T04:51:08.639Z,24.10
2023-03-20T04:53:52.869Z,24.00
2023-03-20T04:56:28.211Z,24.10
2023-03-20T04:59:18.026Z,24.20
2023-03-20T05:01:53.382Z,24.10
2023-03-20T05:04:32.039Z,24.10
2023-03-20T05:07:07.541Z,24.10
2023-03-20T05:09:52.803Z,24.30
2023-03-20T05:12:28.840Z,24.30
2023-03-20T05:15:14.751Z,24.20
2023-03-20T05:18:08.492Z,24.30
2023-03-20T05:21:06.614Z,24.30
2023-03-20T05:23:59.936Z,24.20
2023-03-20T05:26:37.709Z,24.20
2023-03-20T05:29:48.747Z,24.00
2023-03-20T05:32:54.334Z,23.90
2023-03-20T05:35:49.747Z,23.90
2023-03-20T05:38:58.953Z,24.00
2023-03-20T05:41:53.178Z,23.90
2023-03-20T05:44:46.226Z,24.10
2023-03-20T05:47:26.112Z,24.10
2023-03-20T05:50:13.234Z,24.20
2023-03-20T05:53:14.936Z,24.20
2023-03-20T05:56:11.440Z,24.20
2023-03-20T05:58:57.848Z,24.10
2023-03-20T06:01:41.976Z,24.10
2023-03-20T06:04:40.278Z,24.10
2023-03-20T06:07:42.342Z,24.10
2023-03-20T06:10:22.303Z,24.00
2023-03-20T06:13:02.690Z,24.00
2023-03-20T06:15:38.876Z,23.90
2023-03-20T06:18:22.648Z,23.90
2023-03-20T06:21:01.583Z,24.00
2023-03-20T06:23:37.948Z,24.00
2023-03-20T06:26:17.250Z,24.00
2023-03-20T06:29:10.460Z,24.10
2023-03-20T06:31:46.186Z,24.10
2023-03-20T06:34:31.945Z,24.20
2023-03-20T06:37:07.772Z,24.20
2023-03-20T06:39:43.326Z,24.20
2023-03-20T06:42:21.379Z,24.30
2023-03-20T06:44:59.823Z,24.30
2023-03-20T06:47:58.684Z,24.20
2023-03-20T06:50:34.247Z,24.10
2023-03-20T06:53:10.010Z,24.20
2023-03-20T06:56:02.211Z,24.20
2023-03-20T06:58:37.734Z,24.20
2023-03-20T07:01:22.021Z,24.20
2023-03-20T07:03:57.677Z,24.30
2023-03-20T07:06:41.990Z,24.20
2023-03-20T07:09:19.307Z,24.20
2023-03-20T07:11:56.262Z,24.30
2023-03-20T07:14:31.898Z,24.20
2023-03-20T07:17:17.173Z,24.20
2023-03-20T07:19:52.508Z,24.20
2023-03-20T07:22:29.930Z,24.30
2023-03-20T07:25:41.530Z,24.30
2023-03-20T07:28:22.897Z,24.40
2023-03-20T07:31:08.133Z,24.30
2023-03-20T07:33:46.300Z,24.30
2023-03-20T07:36:21.924Z,24.30
2023-03-20T07:38:57.617Z,24.20
2023-03-20T07:41:36.079Z,24.20
2023-03-20T07:44:16.178Z,24.20
2023-03-20T07:46:55.745Z,24.20
2023-03-20T07:49:33.218Z,24.30
2023-03-20T07:52:08.797Z,24.30
2023-03-20T07:54:44.556Z,24.40
2023-03-20T07:57:22.145Z,24.40
2023-03-20T07:59:57.929Z,24.40
2023-03-20T08:02:33.378Z,24.30
2023-03-20T08:05:11.287Z,24.30
2023-03-20T08:07:47.664Z,24.20
2023-03-20T08:10:24.106Z,24.30
2023-03-20T08:13:00.293Z,24.30
2023-03-20T08:15:36.126Z,24.20
2023-03-20T08:18:11.745Z,24.20
2023-03-20T08:20:49.336Z,24.10
2023-03-20T08:23:24.908Z,24.10
2023-03-20T08:26:00.650Z,24.20
2023-03-20T08:28:47.023Z,24.10
2023-03-20T08:31:23.744Z,24.10
2023-03-20T08:34:00.628Z,24.00
2023-03-20T08:36:37.994Z,24.00
2023-03-20T08:39:13.988Z,24.10
2023-03-20T08:41:49.643Z,24.00
2023-03-20T08:44:25.484Z,24.00
2023-03-20T08:47:01.135Z,24.00
2023-03-20T08:49:36.548Z,23.80
2023-03-20T08:52:14.116Z,23.90
2023-03-20T08:54:49.552Z,23.90
2023-03-20T08:57:25.240Z,23.80
2023-03-20T09:00:03.117Z,23.90
2023-03-20T09:02:39.153Z,23.80
2023-03-20T09:05:15.415Z,23.80
2023-03-20T09:07:53.246Z,23.80
2023-03-20T09:10:28.879Z,23.90
2023-03-20T09:13:19.571Z,23.80
2023-03-20T09:16:01.946Z,23.90
2023-03-20T09:18:37.644Z,23.90
2023-03-20T09:21:13.447Z,23.80
2023-03-20T09:23:51.102Z,23.90
2023-03-20T09:26:26.530Z,23.80
2023-03-20T09:29:02.391Z,23.70
2023-03-20T09:31:38.430Z,23.70
2023-03-20T09:34:14.308Z,23.80
2023-03-20T09:36:49.345Z,23.80
2023-03-20T09:39:27.120Z,23.90
2023-03-20T09:42:10.867Z,23.90
2023-03-20T09:44:57.365Z,24.00
2023-03-20T09:47:40.358Z,24.00
2023-03-20T09:50:25.496Z,23.90
2023-03-20T09:53:08.856Z,23.80
2023-03-20T09:55:48.124Z,23.80
2023-03-20T09:58:27.733Z,23.90
2023-03-20T10:01:05.376Z,24.00
2023-03-20T10:03:51.828Z,24.10
2023-03-20T10:06:27.288Z,24.00
2023-03-20T10:09:02.552Z,23.90
2023-03-20T10:12:08.466Z,23.90
2023-03-20T10:14:55.522Z,23.90
2023-03-20T10:17:49.630Z,23.90
2023-03-20T10:20:33.227Z,23.90
2023-03-20T10:23:12.963Z,23.80
2023-03-20T10:25:54.635Z,23.80
2023-03-20T10:28:39.726Z,23.70
2023-03-20T10:31:39.770Z,23.60
2023-03-20T10:34:33.710Z,23.50
2023-03-20T10:37:25.586Z,23.60
2023-03-20T10:40:19.290Z,23.60
2023-03-20T10:42:55.980Z,23.50
2023-03-20T10:45:43.959Z,23.40
2023-03-20T10:48:25.793Z,23.40
2023-03-20T10:51:03.772Z,23.30
2023-03-20T10:53:47.358Z,23.30
2023-03-20T10:56:31.119Z,23.10
2023-03-20T10:59:11.486Z,23.10
2023-03-20T11:01:48.632Z,23.10
2023-03-20T11:04:24.939Z,23.10
2023-03-20T11:07:06.524Z,23.10
2023-03-20T11:09:42.138Z,23.10
2023-03-20T11:12:23.879Z,23.10
2023-03-20T11:15:04.765Z,23.20
2023-03-20T11:17:43.246Z,23.10
2023-03-20T11:20:20.258Z,23.20
2023-03-20T11:23:01.997Z,23.30
2023-03-20T11:25:41.070Z,23.30
2023-03-20T11:28:34.845Z,23.30
2023-03-20T11:31:20.002Z,23.20
2023-03-20T11:34:14.692Z,23.20
2023-03-20T11:37:09.697Z,23.20
2023-03-20T11:40:02.732Z,23.30
2023-03-20T11:42:38.835Z,23.30
2023-03-20T11:45:22.416Z,23.10
2023-03-20T11:47:59.824Z,23.10
2023-03-20T11:50:40.792Z,23.10
2023-03-20T11:53:27.119Z,23.10
2023-03-20T11:56:14.596Z,23.10
2023-03-20T11:59:00.056Z,23.10
2023-03-20T12:01:46.523Z,23.00
2023-03-20T12:04:23.726Z,23.00
2023-03-20T12:07:05.974Z,23.00
2023-03-20T12:09:48.094Z,23.10
2023-03-20T12:12:45.856Z,23.10
2023-03-20T12:15:27.100Z,23.20
2023-03-20T12:18:06.051Z,23.10
2023-03-20T12:20:45.575Z,23.20
2023-03-20T12:23:30.932Z,23.20
2023-03-20T12:26:10.303Z,23.10
2023-03-20T12:28:51.963Z,23.20
2023-03-20T12:31:33.785Z,23.10
2023-03-20T12:34:16.076Z,23.00
2023-03-20T12:36:54.642Z,23.00
2023-03-20T12:39:38.267Z,23.10
2023-03-20T12:42:25.152Z,23.10
2023-03-20T12:45:06.001Z,23.00
2023-03-20T12:48:04.559Z,23.00
2023-03-20T12:50:42.443Z,23.00
2023-03-20T12:53:35.103Z,23.00
2023-03-20T12:56:28.110Z,23.10
2023-03-20T12:59:08.227Z,23.10
2023-03-20T13:01:49.663Z,23.00
2023-03-20T13:04:44.793Z,22.90
2023-03-20T13:07:24.894Z,23.00
2023-03-20T13:10:12.694Z,22.90
2023-03-20T13:12:59.497Z,22.90
2023-03-20T13:15:47.630Z,23.00
2023-03-20T13:18:30.205Z,22.90
2023-03-20T13:21:10.809Z,22.80
2023-03-20T13:23:50.489Z,23.00
2023-03-20T13:26:37.388Z,23.00
2023-03-20T13:29:20.701Z,22.90
2023-03-20T13:32:08.198Z,22.90
2023-03-20T13:35:08.230Z,23.00
2023-03-20T13:37:45.937Z,23.10
2023-03-20T13:40:27.365Z,23.20
2023-03-20T13:43:07.331Z,23.10
2023-03-20T13:45:46.153Z,23.00
2023-03-20T13:48:32.544Z,23.10
2023-03-20T13:51:15.942Z,23.20
2023-03-20T13:54:01.944Z,23.00
2023-03-20T13:56:45.239Z,23.00
2023-03-20T13:59:44.608Z,23.20
2023-03-20T14:02:37.388Z,23.20
2023-03-20T14:05:18.590Z,23.10
2023-03-20T14:07:59.566Z,23.10
2023-03-20T14:10:44.252Z,23.00
2023-03-20T14:13:23.594Z,22.90
2023-03-20T14:16:01.412Z,22.90
2023-03-20T14:18:39.652Z,22.90
2023-03-20T14:21:18.329Z,22.80
2023-03-20T14:23:56.650Z,22.80
2023-03-20T14:26:34.006Z,22.70
2023-03-20T14:29:36.278Z,22.80
2023-03-20T14:32:39.324Z,22.70
2023-03-20T14:35:33.155Z,22.80
2023-03-20T14:38:23.891Z,22.80
2023-03-20T14:41:10.696Z,22.70
2023-03-20T14:44:00.331Z,22.60
2023-03-20T14:46:47.975Z,22.40
2023-03-20T14:49:53.686Z,22.40
2023-03-20T14:52:47.270Z,22.40
2023-03-20T14:55:36.242Z,22.30
2023-03-20T14:58:38.306Z,22.30
2023-03-20T15:01:19.897Z,22.30
2023-03-20T15:03:58.129Z,22.40
2023-03-20T15:06:33.959Z,22.50
2023-03-20T15:09:16.070Z,22.50
2023-03-20T15:11:52.763Z,22.50
2023-03-20T15:14:31.958Z,22.40
2023-03-20T15:17:09.267Z,22.30
2023-03-20T15:19:46.459Z,22.40
2023-03-20T15:22:23.464Z,22.30
2023-03-20T15:25:02.487Z,22.40
2023-03-20T15:27:37.781Z,22.50
2023-03-20T15:30:15.550Z,22.30
2023-03-20T15:32:52.949Z,22.40
2023-03-20T15:35:30.821Z,22.40
2023-03-20T15:38:11.573Z,22.30
2023-03-20T15:40:51.371Z,22.30
2023-03-20T15:43:29.342Z,22.10
2023-03-20T15:46:18.046Z,22.20
2023-03-20T15:48:57.579Z,22.10
2023-03-20T15:51:33.640Z,22.10
2023-03-20T15:54:09.612Z,22.10
2023-03-20T15:56:48.095Z,22.00
2023-03-20T15:59:25.525Z,22.10
2023-03-20T16:02:03.568Z,22.00
2023-03-20T16:04:40.079Z,22.10
2023-03-20T16:07:25.889Z,22.20
2023-03-20T16:10:01.818Z,22.30
2023-03-20T16:12:39.426Z,22.20
2023-03-20T16:15:18.681Z,22.10
2023-03-20T16:17:56.343Z,22.10
2023-03-20T16:20:35.142Z,22.30
2023-03-20T16:23:13.158Z,22.30
2023-03-20T16:25:48.656Z,22.50
2023-03-20T16:28:25.961Z,22.50
2023-03-20T16:31:14.904Z,22.40
2023-03-20T16:33:51.647Z,22.30
2023-03-20T16:36:33.334Z,22.30
2023-03-20T16:39:13.216Z,22.20
2023-03-20T16:41:51.853Z,22.30
2023-03-20T16:44:35.622Z,22.40
2023-03-20T16:47:22.905Z,22.40
2023-03-20T16:50:20.720Z,22.30
2023-03-20T16:53:00.380Z,22.30
2023-03-20T16:55:48.937Z,22.30
2023-03-20T16:58:27.767Z,22.10
2023-03-20T17:01:10.345Z,22.10
2023-03-20T17:03:56.647Z,22.20
2023-03-20T17:06:42.725Z,22.10
2023-03-20T17:09:27.977Z,22.10
2023-03-20T17:12:11.497Z,22.30
2023-03-20T17:14:47.242Z,22.30
2023-03-20T17:17:26.720Z,22.30
2023-03-20T17:20:03.778Z,22.40
2023-03-20T17:22:39.147Z,22.40
2023-03-20T17:25:15.548Z,22.40
2023-03-20T17:27:51.504Z,22.30
2023-03-20T17:30:28.837Z,22.40
2023-03-20T17:33:06.779Z,22.40
2023-03-20T17:35:42.199Z,22.40
2023-03-20T17:38:23.933Z,22.40
2023-03-20T17:40:59.785Z,22.40
2023-03-20T17:43:34.977Z,22.40
2023-03-20T17:46:10.901Z,22.30
2023-03-20T17:48:49.059Z,22.20
2023-03-20T17:51:24.891Z,22.30
2023-03-20T17:54:00.173Z,22.40
2023-03-20T17:56:35.521Z,22.40
2023-03-20T17:59:11.438Z,22.10
2023-03-20T18:01:47.307Z,22.10
2023-03-20T18:04:26.153Z,22.10
2023-03-20T18:07:01.689Z,22.10
2023-03-20T18:09:37.456Z,22.10
2023-03-20T18:12:16.695Z,21.90
2023-03-20T18:14:52.151Z,21.90
2023-03-20T18:17:28.288Z,21.80
2023-03-20T18:20:06.977Z,22.00
2023-03-20T18:22:42.884Z,22.10
2023-03-20T18:25:18.093Z,22.10
2023-03-20T18:27:53.652Z,22.00
2023-03-20T18:30:31.765Z,22.10
2023-03-20T18:33:08.728Z,22.10
2023-03-20T18:35:46.580Z,22.20
2023-03-20T18:38:22.325Z,22.10
2023-03-20T18:40:58.021Z,22.10
2023-03-20T18:43:33.949Z,22.20
2023-03-20T18:46:09.330Z,22.10
2023-03-20T18:48:45.094Z,22.20
2023-03-20T18:51:23.964Z,22.20
2023-03-20T18:54:00.016Z,22.20
2023-03-20T18:56:38.377Z,22.30
2023-03-20T18:59:15.988Z,22.30
2023-03-20T19:01:51.677Z,22.40
2023-03-20T19:04:28.498Z,22.40
2023-03-20T19:07:06.315Z,22.40
2023-03-20T19:09:41.680Z,22.40
2023-03-20T19:12:17.169Z,22.40
2023-03-20T19:14:52.986Z,22.40
2023-03-20T19:17:28.167Z,22.40
2023-03-20T19:20:03.439Z,22.40
2023-03-20T19:22:41.660Z,22.40
2023-03-20T19:25:17.247Z,22.50
2023-03-20T19:27:52.874Z,22.40
2023-03-20T19:30:34.431Z,22.40
2023-03-20T19:33:11.157Z,22.30
2023-03-20T19:36:02.253Z,22.30
2023-03-20T19:38:40.862Z,22.30
2023-03-20T19:41:16.458Z,22.40
2023-03-20T19:43:55.289Z,22.40
2023-03-20T19:46:41.138Z,22.40
2023-03-20T19:49:30.121Z,22.50
2023-03-20T19:52:08.476Z,22.50
2023-03-20T19:55:00.234Z,22.40
2023-03-20T19:57:38.349Z,22.50
2023-03-20T20:03:12.625Z,22.30
2023-03-20T20:05:48.397Z,22.40
2023-03-20T20:08:42.133Z,22.40
2023-03-20T20:11:21.971Z,22.30
2023-03-20T20:14:07.743Z,22.50
2023-03-20T20:16:45.015Z,22.50
2023-03-20T20:19:21.084Z,22.60
2023-03-20T20:22:19.979Z,22.50
2023-03-20T20:24:52.051Z,22.60
2023-03-20T20:27:31.407Z,22.50
2023-03-20T20:30:07.894Z,22.70
2023-03-20T20:32:44.163Z,22.50
2023-03-20T20:35:43.998Z,22.40
2023-03-20T20:38:49.566Z,22.40
2023-03-20T20:41:13.725Z,22.60
2023-03-20T20:44:15.022Z,22.60
2023-03-20T20:46:46.125Z,22.60
2023-03-20T20:49:21.874Z,22.60
2023-03-20T20:51:57.626Z,22.60
2023-03-20T20:54:35.879Z,22.60
2023-03-20T20:57:12.362Z,22.70
2023-03-20T20:59:50.262Z,22.70
2023-03-20T21:02:26.019Z,22.60
2023-03-20T21:05:01.478Z,22.60
2023-03-20T21:07:36.715Z,22.60
2023-03-20T21:10:14.187Z,22.60
2023-03-20T21:12:59.209Z,22.60
2023-03-20T21:15:37.303Z,22.70
2023-03-20T21:18:14.013Z,22.70
2023-03-20T21:20:49.349Z,22.60
2023-03-20T21:23:24.934Z,22.70
2023-03-20T21:26:00.641Z,22.70
2023-03-20T21:28:36.195Z,22.60
2023-03-20T21:31:24.883Z,22.70
2023-03-20T21:34:01.563Z,22.60
2023-03-20T21:36:36.774Z,22.70
2023-03-20T21:39:12.139Z,22.80
2023-03-20T21:41:48.565Z,22.70
2023-03-20T21:45:00.964Z,22.60
2023-03-20T21:48:17.357Z,22.50
2023-03-20T21:51:09.753Z,22.60
2023-03-20T21:54:28.498Z,22.60
2023-03-20T21:57:08.031Z,22.70
2023-03-20T21:59:48.646Z,22.70
2023-03-20T22:02:14.377Z,22.70
2023-03-20T22:11:44.176Z,22.80
2023-03-20T22:20:31.355Z,22.70
2023-03-20T22:23:26.431Z,22.90
2023-03-20T22:37:54.112Z,22.70
2023-03-20T22:46:28.795Z,22.60
2023-03-20T22:49:01.969Z,22.60
2023-03-20T22:51:47.626Z,22.60
2023-03-20T22:54:33.332Z,22.60
2023-03-20T22:57:11.109Z,22.60
2023-03-20T22:59:46.489Z,22.70
2023-03-20T23:02:21.916Z,22.60
2023-03-20T23:05:00.346Z,22.70
2023-03-20T23:07:36.218Z,22.80
2023-03-20T23:10:12.699Z,22.90
2023-03-20T23:12:51.157Z,22.80
2023-03-20T23:15:26.714Z,22.70
2023-03-20T23:18:02.128Z,22.90
2023-03-20T23:20:37.704Z,22.90
2023-03-20T23:23:13.594Z,22.80
2023-03-20T23:25:49.040Z,23.00
2023-03-20T23:28:27.290Z,22.90
2023-03-20T23:31:10.661Z,23.00
2023-03-20T23:33:47.059Z,23.10
2023-03-20T23:36:35.376Z,23.20
2023-03-20T23:39:13.013Z,23.20
2023-03-20T23:42:14.652Z,23.30
2023-03-20T23:44:55.353Z,23.20
2023-03-20T23:47:43.974Z,23.10
2023-03-20T23:50:31.967Z,23.10
2023-03-20T23:53:20.405Z,23.20
2023-03-20T23:55:57.609Z,23.30
2023-03-20T23:58:34.683Z,23.30
